Logo AVAMET
Benvolgut visitant, si us plau, ingressa Recuperar contrasenya

Xixona castell

Dades diàries. Acumulats / Últims 30 dies disponibles

Data Temperatura (°C) Humitat rel. (%) Pressió rel. (hPa) Vent (km/h) Precipitació
Mínima Mitjana Màxima Amplitud
tèrmica
Mínima Mitjana Màxima Mínima Mitjana Màxima Predom. Mitjana Ràfega
màxima
Total
(mm)
Índex-n
Mínima Mitjana Màxima Mínima Mitjana Màxima n
0 a 1
P0 max
mm 5'
Dades mensuals acumulades fins l'últim dia disponible
08/2019 18,3 21,9 25,9 26,0 26,6 30,7 36,2 17,9 0 56 83 1.007 1.013 1.019   6,8 54,7 0,6
Dades anuals acumulades fins l'últim dia disponible
2019 1,4 12,9 25,9 16,8 8,8 21,0 36,6 35,2 0 55 90 993 1.016 1.034   9,2 120,7 117,0
Últims 30 dies disponibles
20-08-2019 20,9     23,5     28,6 7,7 60 72 83 1.012 1.014 1.018 NE 8,9 54,7 0,6
19-08-2019 22,9     26,2     28,8 5,9 28 56 82 1.010 1.012 1.013 SSE 6,8 25,7 0,0
18-08-2019 24,6     28,2     33,0 8,4 23 40 66 1.009 1.011 1.012 NW 6,1 30,6 0,0
17-08-2019 22,3     27,0     31,1 8,8 22 39 58 1.011 1.014 1.016 NW 5,6 24,1 0,0
16-08-2019 20,4     24,7     29,6 9,2 31 48 71 1.014 1.016 1.018 SSE 5,0 25,7 0,0
15-08-2019 19,6     24,5     29,1 9,5 41 57 72 1.016 1.017 1.017 NW 5,6 27,4 0,0
14-08-2019 18,3     23,0     27,8 9,5 44 65 79 1.016 1.017 1.019 SE 6,1 27,4 0,0
13-08-2019 20,7     22,7     26,6 5,9 56 67 76 1.015 1.016 1.018 NE 8,7 38,6 0,0
12-08-2019 21,8     25,9     28,3 6,5 21 48 82 1.010 1.012 1.016 NE 10,1 45,1 0,0
11-08-2019 22,5     25,8     29,8 7,3 52 68 82 1.009 1.011 1.013 SSE 5,1 27,4 0,0
10-08-2019 25,9     30,8     34,8 8,9 24 42 73 1.011 1.012 1.014 SSE 9,0 33,8 0,0
09-08-2019 25,0     30,7     36,2 11,2 16 31 45 1.010 1.011 1.012 NW 11,7 51,5 0,0
08-08-2019 25,6     28,1     32,1 6,5 29 48 69 1.009 1.011 1.012 SSE 7,2 30,6 0,0
07-08-2019 22,9     29,2     34,8 11,9 15 36 60 1.007 1.009 1.011 NW 10,8 51,5 0,0
06-08-2019 22,1     26,4     31,3 9,2 53 65 80 1.008 1.010 1.012 SSE 4,7 30,6 0,0
05-08-2019 21,5     25,1     31,2 9,7 53 67 81 1.010 1.012 1.014 SSE 4,8 29,0 0,0
04-08-2019 20,4     25,1     31,7 11,3 45 64 80 1.011 1.012 1.014 SSE 5,5 24,1 0,0
03-08-2019 20,8     24,1     29,9 9,1 0 66 81 1.011 1.013 1.014 SSE 3,9 25,7 0,0
02-08-2019 20,3     24,6     29,3 9,0 55 68 81 1.011 1.012 1.014 SSE 5,6 30,6 0,0
01-08-2019 20,3     23,8     29,7 9,4 44 66 79 1.009 1.011 1.013 SSE 5,5 32,2 0,0
31-07-2019 20,2     22,7     27,8 7,6 0 65 84 1.011 1.014 1.016 SSE 6,6 40,2 0,0
30-07-2019 19,2     23,6     28,6 9,4 40 65 83 1.010 1.011 1.013 SSE 4,3 30,6 0,0
29-07-2019 19,3     23,7     28,9 9,6 56 71 1.009 1.010 1.011 NW 4,7 29,0 0,0
28-07-2019 20,3     23,2     26,4 6,1 44 62 78 1.005 1.008 1.010 SSE 10,6 59,5 0,0
27-07-2019 22,8     26,8     30,9 8,1 19 30 63 1.001 1.005 1.007 WNW 29,6 69,2 0,0
26-07-2019 20,8     25,6     28,7 7,9 33 54 68 1.006 1.008 1.012 SSE 5,0 29,0 0,0
25-07-2019 22,3     27,3     32,0 9,7 29 37 52 1.011 1.012 1.014 SSE 5,8 32,2 0,0
24-07-2019 23,5     28,0     32,8 9,3 21 29 39 1.013 1.014 1.015 NW 6,0 32,2 0,0
23-07-2019 23,6     28,6     33,3 9,7 29 43 1.013 1.016 1.018 NW 4,0 32,2 0,0
22-07-2019 23,3     28,0     33,4 10,1 18 32 59 1.017 1.018 1.019 N 6,8 30,6 0,0
Últims 13 mesos disponibles
07/2019 18,1 20,9 23,9 25,6 26,4 30,5 36,6 18,5 29 50 73 1.005 1.012 1.018 SSE 6,9 83,7 0,2
06/2019 12,8 17,3 25,8 22,0 21,3 26,3 35,4 22,6 26 50 76 1.007 1.013 1.021 SSE 7,0 72,4 2,0
05/2019 8,5 13,0 18,3 16,9 15,4 20,8 27,0 18,5 40 61 77 1.005 1.014 1.024 SSE 6,4 96,6 4,8
04/2019 6,4 9,7 12,5 13,1 12,8 17,0 24,6 18,2 36 65 84 999 1.012 1.024 SSE 13,1 103,0 87,0
03/2019 4,4 9,1 13,6 12,9 9,9 16,9 23,5 19,1 26 52 78 1.010 1.022 1.029 NW 9,6 106,2 19,8
02/2019 1,4 7,2 13,4 11,1 9,5 15,3 22,1 20,7 23 53 75 996 1.024 1.032 NW 9,4 114,3 1,4
01/2019 2,1 6,6 10,4 9,9 8,8 13,5 18,2 16,1 30 57 78 1.003 1.018 1.030 NW 13,7 120,7 1,2
12/2018 5,3 10,6 15,7 14,9 13,2 19,1 23,4 18,1 33 53 71 1.008 1.022 1.026 NW 8,9 106,2 29,6
11/2018 8,1 10,5 14,7 13,1 12,2 16,4 20,1 12,0 30 63 78 999 1.014 1.021 NW 11,2 103,0 19,6
10/2018 4,9 13,5 17,8 16,7 11,1 20,7 25,0 20,1 42 65 76 998 1.013 1.024 NW 9,0 107,8 38,2
09/2018 13,1 18,8 22,0 22,0 21,5 26,3 28,9 15,8 55 70 81 1.011 1.017 1.026 SSE 6,6 62,8 26,2
08/2018 16,8 21,1 24,8 24,8 25,6 29,2 33,4 16,6 38 63 82 1.011 1.015 1.019 SSE 6,0 53,1 12,4
07/2018 17,8 20,7 23,5 25,1 26,7 29,7 33,4 15,6 7,5 90,1 0,0
Tots els anys disponibles
2018 1,1 13,3 24,8 16,8 5,9 20,9 33,4 32,3 30 64 82 998 1.016 1.026 NW 10,1 119,1 312,4
2017 -0,4 13,1 25,9 16,7 4,3 20,9 34,2 34,6 9,0 123,9 219,0
2016 2,6 13,2 28,0 16,5 8,9 20,5 37,3 34,7 9,7 132,0 272,6
Temperatura (°C)
Humitat relativa (%)
Velocitat del vent i ràfega màxima (km/h)
Direcció del vent (°)
Pressió (hPa)
Precipitació (mm)
Nota sobre les dades: s'avisa a l'usuari de la provisionalitat i no oficialitat d'aquestes dades
Logo AVAMET blanc
Web allotjada a Sollutia
Llicència de Creative CommonsLa web d'AVAMET i els seus continguts estan subjectes a una llicència de
Reconeixement - No Comercial - Compartir igual
Properes estacions: Altea - Club Nàutic d'Altea (Soci), Ares del Maestrat (Ajuntament Soci),      - - - - -      Últimes estacions: Catadau - Urb. Lloma Molina (Inforatge), Ontinyent - El Pilar (Soci) - - -